Time;durP1;ratioP1;P1;durP2;ratioP2;P2;SDS_P1;SDS_P2;PMS_P1;PMS_P2;Temp;Humidity;BMP_temperature;BMP_pressure;BME280_temperature;BME280_humidity;BME280_pressure;Samples;Min_cycle;Max_cycle;Signal;HPM_P1;HPM_P2
2023/10/04 00:00:31;;;;;;;5.07;1.70;;;;;;;22.72;100.00;102044.31;4942746;28;20506;-40
2023/10/04 00:02:58;;;;;;;6.25;1.90;;;;;;;22.76;100.00;102049.81;4942148;29;20051;-43
2023/10/04 00:05:24;;;;;;;3.72;1.77;;;;;;;22.83;100.00;102053.16;4953402;29;20051;-41
2023/10/04 00:07:56;;;;;;;5.15;1.60;;;;;;;22.75;100.00;102054.69;4937249;29;20387;-42
2023/10/04 00:10:23;;;;;;;5.63;2.03;;;;;;;22.73;100.00;102056.44;4933951;29;20079;-42
2023/10/04 00:12:51;;;;;;;7.80;1.98;;;;;;;22.73;100.00;102060.06;4944300;28;20075;-40
2023/10/04 00:15:20;;;;;;;3.17;1.40;;;;;;;22.74;100.00;102058.03;4935643;28;20055;-45
2023/10/04 00:17:47;;;;;;;4.68;1.58;;;;;;;22.75;100.00;102065.25;4940866;28;20155;-41
2023/10/04 00:20:16;;;;;;;5.90;1.52;;;;;;;22.77;100.00;102057.06;4934389;29;20066;-43
2023/10/04 00:22:46;;;;;;;5.40;1.50;;;;;;;22.73;100.00;102062.91;4923751;29;20572;-43
2023/10/04 00:25:16;;;;;;;6.90;2.17;;;;;;;22.77;100.00;102065.56;4938792;29;20055;-42
2023/10/04 00:27:43;;;;;;;4.78;1.60;;;;;;;22.74;100.00;102070.13;4938576;28;20079;-45
2023/10/04 00:30:11;;;;;;;4.95;1.80;;;;;;;22.79;100.00;102065.91;4937823;29;20110;-44
2023/10/04 00:32:38;;;;;;;3.60;1.70;;;;;;;22.80;100.00;102062.59;4946152;29;20058;-45
2023/10/04 00:35:17;;;;;;;4.22;1.83;;;;;;;22.82;100.00;102064.97;4941636;28;20184;-42
2023/10/04 00:37:44;;;;;;;5.47;1.80;;;;;;;22.80;100.00;102064.63;4944991;29;20130;-42
2023/10/04 00:40:14;;;;;;;6.75;1.77;;;;;;;22.74;100.00;102072.19;4948812;28;20387;-42
2023/10/04 00:42:41;;;;;;;4.57;1.52;;;;;;;22.95;100.00;102076.94;4945310;28;20050;-41
2023/10/04 00:45:13;;;;;;;7.20;1.83;;;;;;;22.97;100.00;102071.63;4937304;28;20587;-44
2023/10/04 00:47:43;;;;;;;6.28;1.77;;;;;;;22.86;100.00;102071.25;4949169;28;20047;-41
2023/10/04 00:50:17;;;;;;;6.78;1.60;;;;;;;22.82;100.00;102064.97;4939479;29;20051;-39
2023/10/04 00:52:49;;;;;;;5.50;1.73;;;;;;;22.84;100.00;102070.94;4941526;29;20055;-41
2023/10/04 00:55:17;;;;;;;4.50;2.00;;;;;;;22.85;100.00;102078.19;4952103;29;20055;-40
2023/10/04 00:57:44;;;;;;;7.55;1.55;;;;;;;22.85;100.00;102075.38;4951900;29;20532;-42
2023/10/04 01:00:11;;;;;;;4.45;1.50;;;;;;;22.81;100.00;102083.25;4948902;28;20162;-42
2023/10/04 01:02:39;;;;;;;3.47;1.58;;;;;;;22.82;100.00;102076.31;4940326;29;20058;-42
2023/10/04 01:05:07;;;;;;;4.22;1.65;;;;;;;22.81;100.00;102091.75;4936105;28;20058;-41
2023/10/04 01:07:37;;;;;;;5.88;1.90;;;;;;;22.80;100.00;102095.81;4939203;29;20777;-43
2023/10/04 01:10:14;;;;;;;3.25;1.73;;;;;;;22.73;100.00;102093.28;4944795;28;20859;-42
2023/10/04 01:12:44;;;;;;;6.50;1.88;;;;;;;22.76;100.00;102087.47;4939469;29;20090;-41
2023/10/04 01:15:30;;;;;;;4.13;1.73;;;;;;;22.75;100.00;102076.59;4941441;28;20079;-40
2023/10/04 01:17:58;;;;;;;4.03;1.38;;;;;;;22.80;100.00;102085.28;4943505;29;20071;-41
2023/10/04 01:20:28;;;;;;;8.15;1.33;;;;;;;22.88;100.00;102078.03;4939731;28;20142;-40
2023/10/04 01:23:02;;;;;;;4.60;1.70;;;;;;;22.85;100.00;102078.97;4932808;29;20138;-41
2023/10/04 01:25:31;;;;;;;3.07;1.77;;;;;;;22.85;100.00;102078.19;4932711;29;20052;-43
2023/10/04 01:28:26;;;;;;;2.85;1.55;;;;;;;22.82;100.00;102074.25;4942008;29;20128;-45
2023/10/04 01:30:59;;;;;;;7.47;1.63;;;;;;;22.79;100.00;102086.53;4950904;29;20055;-43
2023/10/04 01:33:28;;;;;;;4.22;1.60;;;;;;;22.82;100.00;102091.28;4951679;29;20118;-40
2023/10/04 01:35:55;;;;;;;3.78;1.50;;;;;;;22.83;100.00;102092.03;4951031;29;20517;-40
2023/10/04 01:38:27;;;;;;;2.90;1.50;;;;;;;22.79;100.00;102094.25;4950717;28;20374;-44
2023/10/04 01:40:55;;;;;;;4.13;1.55;;;;;;;22.80;100.00;102095.81;4949016;28;20264;-41
2023/10/04 01:43:25;;;;;;;3.35;1.45;;;;;;;22.80;100.00;102090.94;4938099;29;20055;-43
2023/10/04 01:45:57;;;;;;;7.60;1.52;;;;;;;22.82;100.00;102094.13;4932878;29;20577;-43
2023/10/04 01:48:27;;;;;;;5.25;1.70;;;;;;;22.81;100.00;102086.06;4932453;29;20087;-40
2023/10/04 01:50:54;;;;;;;4.57;1.48;;;;;;;22.79;100.00;102088.59;4931321;29;20067;-41
2023/10/04 01:53:23;;;;;;;5.40;1.65;;;;;;;22.78;100.00;102087.78;4936191;29;20665;-38
2023/10/04 01:55:49;;;;;;;3.55;1.42;;;;;;;22.75;100.00;102096.44;4942354;28;20050;-40
2023/10/04 01:58:22;;;;;;;4.22;1.65;;;;;;;22.76;100.00;102095.19;4932008;29;20102;-43
2023/10/04 02:00:49;;;;;;;7.20;1.55;;;;;;;22.74;100.00;102089.97;4931685;29;20083;-41
2023/10/04 02:03:16;;;;;;;2.75;1.20;;;;;;;22.75;100.00;102088.72;4937228;28;20245;-45
2023/10/04 02:05:43;;;;;;;5.15;1.58;;;;;;;22.77;100.00;102093.91;4936944;28;20553;-42
2023/10/04 02:08:10;;;;;;;5.28;1.75;;;;;;;22.78;100.00;102087.00;4932017;29;20082;-44
2023/10/04 02:10:36;;;;;;;2.60;1.15;;;;;;;22.76;100.00;102092.34;4934679;29;20506;-40
2023/10/04 02:13:06;;;;;;;2.90;1.35;;;;;;;22.77;100.00;102088.25;4936323;29;20808;-41
2023/10/04 02:15:37;;;;;;;3.88;1.52;;;;;;;22.78;100.00;102098.34;4947422;28;20051;-43
2023/10/04 02:18:04;;;;;;;4.65;1.45;;;;;;;22.77;100.00;102091.09;4931688;29;20047;-39
2023/10/04 02:20:33;;;;;;;5.10;1.38;;;;;;;22.74;100.00;102103.38;4942726;29;20057;-40
2023/10/04 02:23:02;;;;;;;3.63;1.73;;;;;;;22.76;100.00;102098.03;4951002;29;20114;-41
2023/10/04 02:25:29;;;;;;;3.72;1.67;;;;;;;22.76;100.00;102092.34;4950197;29;20086;-42
2023/10/04 02:28:06;;;;;;;6.63;1.83;;;;;;;22.74;100.00;102089.22;4950599;29;20051;-43
2023/10/04 02:30:33;;;;;;;3.80;1.50;;;;;;;22.75;100.00;102096.44;4927689;29;20146;-41
2023/10/04 02:33:00;;;;;;;3.38;1.48;;;;;;;22.76;100.00;102095.19;4934817;29;20051;-40
2023/10/04 02:35:27;;;;;;;2.88;1.20;;;;;;;22.74;100.00;102094.88;4950577;29;20525;-40
2023/10/04 02:38:08;;;;;;;3.67;1.50;;;;;;;22.74;100.00;102094.88;4947521;29;20074;-41
2023/10/04 02:40:37;;;;;;;4.15;1.48;;;;;;;22.73;100.00;102096.13;4931896;29;20146;-40
2023/10/04 02:43:03;;;;;;;3.63;1.10;;;;;;;22.73;100.00;102096.91;4938928;29;20102;-44
2023/10/04 02:45:30;;;;;;;3.67;1.65;;;;;;;22.72;100.00;102103.84;4931517;29;20099;-38
2023/10/04 02:47:57;;;;;;;3.10;1.30;;;;;;;22.73;100.00;102096.91;4931449;29;20040;-41
2023/10/04 02:50:24;;;;;;;4.53;1.42;;;;;;;22.73;100.00;102096.13;4932115;29;20698;-40
2023/10/04 02:52:51;;;;;;;3.85;1.25;;;;;;;22.71;100.00;102093.75;4942722;29;20051;-41
2023/10/04 02:55:18;;;;;;;2.30;1.35;;;;;;;22.70;100.00;102094.22;4937400;29;20142;-42
2023/10/04 02:57:49;;;;;;;4.15;1.40;;;;;;;22.71;100.00;102095.81;4943086;28;20052;-41
2023/10/04 03:00:19;;;;;;;2.72;1.00;;;;;;;22.72;100.00;102091.72;4935107;29;20424;-40
2023/10/04 03:02:48;;;;;;;2.28;1.27;;;;;;;22.72;100.00;102086.03;4944294;29;20153;-42
2023/10/04 03:05:18;;;;;;;5.47;1.83;;;;;;;22.69;100.00;102090.63;4954340;29;20141;-41
2023/10/04 03:07:52;;;;;;;3.63;1.50;;;;;;;22.69;100.00;102092.66;4954127;29;20077;-43
2023/10/04 03:10:25;;;;;;;3.55;1.48;;;;;;;22.68;100.00;102088.25;4947959;28;20538;-43
2023/10/04 03:12:56;;;;;;;2.22;1.27;;;;;;;22.69;100.00;102092.66;4940530;29;20138;-41
2023/10/04 03:15:23;;;;;;;3.45;1.38;;;;;;;22.67;100.00;102100.81;4935226;29;20059;-43
2023/10/04 03:17:53;;;;;;;3.25;1.60;;;;;;;22.68;100.00;102108.09;4935171;29;20059;-41
2023/10/04 03:20:21;;;;;;;2.42;1.30;;;;;;;22.71;100.00;102102.25;4934534;29;20052;-40
2023/10/04 03:22:50;;;;;;;3.67;1.40;;;;;;;22.69;100.00;102104.78;4946189;29;20086;-41
2023/10/04 03:25:17;;;;;;;2.25;0.93;;;;;;;22.68;100.00;102099.59;4951949;28;20519;-41
2023/10/04 03:27:44;;;;;;;2.60;1.27;;;;;;;22.68;100.00;102097.53;4936417;29;20083;-42
2023/10/04 03:30:16;;;;;;;3.92;1.25;;;;;;;22.67;100.00;102100.81;4953203;29;20051;-40
2023/10/04 03:32:56;;;;;;;3.40;1.23;;;;;;;22.67;100.00;102101.63;4944090;29;20582;-41
2023/10/04 03:35:26;;;;;;;2.00;1.17;;;;;;;22.68;100.00;102103.19;4934902;29;20068;-40
2023/10/04 03:38:04;;;;;;;4.82;1.38;;;;;;;22.66;100.00;102097.22;4946269;29;20055;-41
2023/10/04 03:40:34;;;;;;;2.58;1.20;;;;;;;22.65;100.00;102104.16;4953126;29;20051;-44
2023/10/04 03:43:05;;;;;;;2.55;1.25;;;;;;;22.67;100.00;102104.47;4946173;29;20418;-41
2023/10/04 03:45:33;;;;;;;3.72;1.42;;;;;;;22.65;100.00;102109.81;4938125;29;20047;-41
2023/10/04 03:48:00;;;;;;;2.85;1.08;;;;;;;22.66;100.00;102121.94;4953387;29;20051;-41
2023/10/04 03:50:27;;;;;;;3.15;1.13;;;;;;;22.66;100.00;102127.59;4952322;29;20055;-42
2023/10/04 03:52:57;;;;;;;1.98;1.17;;;;;;;22.64;100.00;102118.78;4942177;29;20051;-41
2023/10/04 03:55:27;;;;;;;3.13;1.10;;;;;;;22.65;100.00;102118.34;4938251;29;20123;-40
2023/10/04 03:57:54;;;;;;;2.40;1.20;;;;;;;22.67;100.00;102124.31;4942412;28;20059;-41
2023/10/04 04:00:23;;;;;;;2.25;1.27;;;;;;;22.62;100.00;102115.63;4934074;29;20134;-40
2023/10/04 04:02:50;;;;;;;3.55;1.13;;;;;;;22.65;100.00;102111.88;4933715;29;20494;-41
2023/10/04 04:05:22;;;;;;;4.40;1.55;;;;;;;22.62;100.00;102118.47;4933964;29;20087;-43
2023/10/04 04:07:51;;;;;;;3.92;1.15;;;;;;;22.63;100.00;102117.19;4943305;29;20063;-42
2023/10/04 04:10:19;;;;;;;3.75;1.30;;;;;;;22.63;100.00;102120.84;4938256;29;20511;-41
2023/10/04 04:12:46;;;;;;;1.90;1.10;;;;;;;22.62;100.00;102124.13;4946605;29;20055;-44
2023/10/04 04:15:20;;;;;;;2.45;1.00;;;;;;;22.63;100.00;102120.03;4939184;29;20144;-42
2023/10/04 04:17:48;;;;;;;5.03;1.73;;;;;;;22.66;100.00;102117.06;4937613;28;20134;-42
2023/10/04 04:20:16;;;;;;;3.63;1.35;;;;;;;22.65;100.00;102126.03;4949625;29;20075;-42
2023/10/04 04:22:54;;;;;;;2.22;0.98;;;;;;;22.63;100.00;102132.16;4952073;29;20047;-42
2023/10/04 04:25:21;;;;;;;2.95;1.20;;;;;;;22.63;100.00;102122.88;4952881;29;20147;-39
2023/10/04 04:27:50;;;;;;;4.88;1.45;;;;;;;22.62;100.00;102124.13;4942522;28;20063;-42
2023/10/04 04:30:28;;;;;;;3.08;1.15;;;;;;;22.65;100.00;102128.88;4933918;28;20107;-40
2023/10/04 04:32:58;;;;;;;5.65;1.27;;;;;;;22.62;100.00;102135.47;4936074;29;20146;-41
2023/10/04 04:38:24;;;;;;;3.72;1.33;;;;;;;22.64;100.00;102136.56;4940462;29;20056;-40
2023/10/04 04:41:04;;;;;;;3.03;1.20;;;;;;;22.64;100.00;102139.41;4934308;29;20070;-36
2023/10/04 04:43:37;;;;;;;4.88;1.40;;;;;;;22.63;100.00;102129.34;4933600;29;20502;-40
2023/10/04 04:46:10;;;;;;;2.38;1.05;;;;;;;22.61;100.00;102120.50;4948677;28;20118;-45
2023/10/04 04:48:37;;;;;;;4.13;1.30;;;;;;;22.62;100.00;102138.31;4938775;28;20043;-41
2023/10/04 04:53:33;;;;;;;4.03;1.52;;;;;;;22.60;100.00;102132.31;4934181;29;20063;-43
2023/10/04 04:56:01;;;;;;;2.97;1.10;;;;;;;22.59;100.00;102136.41;4933120;29;20700;-41
2023/10/04 04:58:28;;;;;;;4.53;1.55;;;;;;;22.59;100.00;102136.41;4933394;29;20087;-40
2023/10/04 05:01:00;;;;;;;2.88;1.20;;;;;;;22.61;100.00;102122.56;4950961;29;20135;-41
2023/10/04 05:03:27;;;;;;;1.88;1.00;;;;;;;22.57;100.00;102119.84;4944197;28;20652;-39
2023/10/04 05:05:55;;;;;;;2.88;1.00;;;;;;;22.57;100.00;102119.84;4932953;29;20059;-42
2023/10/04 05:08:26;;;;;;;3.25;1.30;;;;;;;22.58;100.00;102117.81;4950079;29;20458;-40
2023/10/04 05:10:57;;;;;;;2.22;0.88;;;;;;;22.59;100.00;102110.88;4934593;29;20087;-42
2023/10/04 05:13:23;;;;;;;2.05;1.10;;;;;;;22.60;100.00;102115.28;4936080;29;20510;-43
2023/10/04 05:15:50;;;;;;;3.05;1.20;;;;;;;22.62;100.00;102121.31;4937297;29;20051;-40
2023/10/04 05:18:17;;;;;;;2.90;1.30;;;;;;;22.61;100.00;102129.00;4937730;28;20086;-41
2023/10/04 05:20:56;;;;;;;3.25;1.20;;;;;;;22.58;100.00;102129.94;4940392;29;20056;-43
2023/10/04 05:23:27;;;;;;;9.02;1.40;;;;;;;22.58;100.00;102127.09;4943029;29;20060;-40
2023/10/04 05:25:54;;;;;;;3.80;1.15;;;;;;;22.58;100.00;102132.00;4932505;29;20110;-45
2023/10/04 05:28:24;;;;;;;3.03;1.23;;;;;;;22.60;100.00;102126.63;4932865;29;20098;-41
2023/10/04 05:30:51;;;;;;;2.65;1.33;;;;;;;22.61;100.00;102134.66;4948122;28;20110;-39
2023/10/04 05:33:22;;;;;;;4.35;1.10;;;;;;;22.58;100.00;102124.25;4950888;28;20059;-44
2023/10/04 05:35:55;;;;;;;3.30;1.45;;;;;;;22.57;100.00;102127.56;4951544;29;20070;-42
2023/10/04 05:38:23;;;;;;;1.55;0.80;;;;;;;22.58;100.00;102129.16;4950244;29;20055;-41
2023/10/04 05:40:50;;;;;;;2.15;1.15;;;;;;;22.58;100.00;102123.50;4949117;29;20079;-41
2023/10/04 05:43:18;;;;;;;2.50;1.05;;;;;;;22.56;100.00;102143.00;4932240;29;20051;-40
2023/10/04 05:45:47;;;;;;;1.48;0.95;;;;;;;22.57;100.00;102150.22;4932467;29;20052;-40
2023/10/04 05:48:18;;;;;;;4.10;1.15;;;;;;;22.53;100.00;102139.06;4945581;28;20055;-43
2023/10/04 05:50:46;;;;;;;2.75;1.00;;;;;;;22.55;100.00;102147.09;4934843;29;20219;-40
2023/10/04 05:53:19;;;;;;;2.55;1.10;;;;;;;22.58;100.00;102149.78;4948813;29;20157;-45
2023/10/04 05:55:46;;;;;;;2.72;0.93;;;;;;;22.61;100.00;102148.84;4942863;28;20082;-39
2023/10/04 05:58:13;;;;;;;5.38;1.08;;;;;;;22.61;100.00;102150.91;4937305;28;20083;-43
2023/10/04 06:00:42;;;;;;;4.47;1.20;;;;;;;22.60;100.00;102146.47;4939097;28;20051;-41
2023/10/04 06:03:11;;;;;;;3.70;1.42;;;;;;;22.61;100.00;102154.50;4949481;29;20217;-41
2023/10/04 06:05:40;;;;;;;3.17;1.20;;;;;;;22.61;100.00;102179.25;4947246;29;20411;-43
2023/10/04 06:08:15;;;;;;;3.55;1.23;;;;;;;22.61;100.00;102177.19;4946933;28;20518;-45
2023/10/04 06:10:43;;;;;;;3.58;1.17;;;;;;;22.60;100.00;102183.31;4943582;29;20044;-41
2023/10/04 06:13:13;;;;;;;2.97;1.27;;;;;;;22.60;100.00;102186.16;4945148;28;20051;-41
2023/10/04 06:15:44;;;;;;;5.25;1.08;;;;;;;22.58;100.00;102192.28;4950071;29;20055;-43
2023/10/04 06:18:12;;;;;;;1.60;1.02;;;;;;;22.57;100.00;102195.59;4945948;29;20577;-42
2023/10/04 06:20:40;;;;;;;6.78;1.38;;;;;;;22.59;100.00;102202.41;4939310;29;20765;-40
2023/10/04 06:23:10;;;;;;;3.72;1.50;;;;;;;22.59;100.00;102212.94;4942693;29;20674;-46
2023/10/04 06:25:45;;;;;;;3.35;1.45;;;;;;;22.58;100.00;102217.03;4938355;29;20055;-41
2023/10/04 06:28:11;;;;;;;;;;;;;;;22.59;100.00;102204.44;4944056;29;20575;-43
2023/10/04 06:30:39;;;;;;;4.10;1.42;;;;;;;22.56;100.00;102206.16;4948454;29;19927;-42
2023/10/04 06:33:09;;;;;;;4.32;1.20;;;;;;;22.56;100.00;102209.00;4938800;29;20070;-41
2023/10/04 06:35:37;;;;;;;3.25;1.00;;;;;;;22.55;100.00;102215.13;4948970;29;20865;-41
2023/10/04 06:38:06;;;;;;;1.08;0.77;;;;;;;22.59;100.00;102216.56;4940578;28;20063;-40
2023/10/04 06:40:34;;;;;;;2.88;1.48;;;;;;;22.54;100.00;102214.31;4939063;29;20083;-41
2023/10/04 06:43:05;;;;;;;3.47;1.45;;;;;;;22.57;100.00;102218.25;4931559;29;20126;-40
2023/10/04 06:45:34;;;;;;;2.55;1.20;;;;;;;22.58;100.00;102223.47;4946537;29;20102;-40
2023/10/04 06:48:03;;;;;;;1.58;1.05;;;;;;;22.57;100.00;102219.06;4931328;29;20529;-40
2023/10/04 06:50:42;;;;;;;2.00;1.00;;;;;;;22.57;100.00;102218.25;4936881;28;20143;-42
2023/10/04 06:53:12;;;;;;;3.40;1.20;;;;;;;22.56;100.00;102240.16;4931162;29;20064;-43
2023/10/04 06:55:41;;;;;;;2.50;1.30;;;;;;;22.59;100.00;102244.09;4947127;29;20051;-41
2023/10/04 06:58:10;;;;;;;4.28;1.27;;;;;;;22.59;100.00;102238.44;4931455;29;20091;-41
2023/10/04 07:00:38;;;;;;;8.05;1.35;;;;;;;22.55;100.00;102237.78;4934278;29;20051;-45
2023/10/04 07:03:05;;;;;;;4.22;1.20;;;;;;;22.55;100.00;102249.13;4931700;29;20064;-44
2023/10/04 07:05:36;;;;;;;2.25;1.30;;;;;;;22.57;100.00;102240.94;4940408;28;20159;-40
2023/10/04 07:08:05;;;;;;;3.53;1.13;;;;;;;22.57;100.00;102244.56;4934921;29;20513;-42
2023/10/04 07:10:33;;;;;;;4.28;1.27;;;;;;;22.56;100.00;102251.50;4944301;28;20467;-41
2023/10/04 07:13:01;;;;;;;2.22;1.00;;;;;;;22.61;100.00;102253.72;4943345;29;20059;-43
2023/10/04 07:15:30;;;;;;;4.65;1.52;;;;;;;22.59;100.00;102252.63;4949312;29;20106;-44
2023/10/04 07:17:57;;;;;;;4.82;1.10;;;;;;;22.61;100.00;102255.78;4941898;29;20057;-42
2023/10/04 07:20:24;;;;;;;4.72;0.82;;;;;;;22.61;100.00;102264.28;4950109;29;20133;-40
2023/10/04 07:22:58;;;;;;;5.63;1.20;;;;;;;22.65;100.00;102259.28;4950004;29;20059;-45
2023/10/04 07:25:27;;;;;;;3.17;1.10;;;;;;;22.61;100.00;102267.91;4943242;28;20123;-43
2023/10/04 07:27:56;;;;;;;4.45;1.25;;;;;;;22.57;100.00;102267.25;4939720;29;20078;-41
2023/10/04 07:30:25;;;;;;;5.32;1.20;;;;;;;22.56;100.00;102264.88;4917784;29;20083;-43
2023/10/04 07:32:54;;;;;;;2.15;1.02;;;;;;;22.57;100.00;102270.09;4943592;29;20500;-42
2023/10/04 07:35:25;;;;;;;3.17;1.10;;;;;;;22.60;100.00;102271.19;4938507;28;20138;-40
2023/10/04 07:37:53;;;;;;;5.53;1.25;;;;;;;22.63;100.00;102264.59;4938664;28;20051;-42
2023/10/04 07:40:24;;;;;;;3.45;1.20;;;;;;;22.60;100.00;102271.19;4939990;29;20058;-43
2023/10/04 07:42:53;;;;;;;4.18;1.35;;;;;;;22.59;100.00;102263.94;4943053;29;20059;-41
2023/10/04 07:45:22;;;;;;;5.03;1.42;;;;;;;22.60;100.00;102274.03;4942190;29;20086;-44
2023/10/04 07:47:48;;;;;;;6.38;1.00;;;;;;;22.61;100.00;102269.97;4941349;28;20053;-42
2023/10/04 07:50:22;;;;;;;4.30;1.23;;;;;;;22.58;100.00;102271.66;4948591;29;20043;-45
2023/10/04 07:52:50;;;;;;;7.60;1.40;;;;;;;22.59;100.00;102273.25;4949677;29;20055;-43
2023/10/04 07:55:19;;;;;;;2.80;0.93;;;;;;;22.60;100.00;102276.88;4950235;29;20098;-40
2023/10/04 07:57:48;;;;;;;5.13;1.40;;;;;;;22.63;100.00;102281.59;4942015;29;20491;-45
2023/10/04 08:00:16;;;;;;;5.53;1.10;;;;;;;22.60;100.00;102285.38;4940141;29;20106;-41
2023/10/04 08:02:50;;;;;;;2.85;0.80;;;;;;;22.60;100.00;102282.53;4936430;29;20050;-42
2023/10/04 08:05:23;;;;;;;3.75;1.17;;;;;;;22.62;100.00;102272.34;4934078;29;20130;-42
2023/10/04 08:07:51;;;;;;;8.02;1.90;;;;;;;22.60;100.00;102276.88;4940648;29;20516;-42
2023/10/04 08:10:23;;;;;;;7.90;1.95;;;;;;;22.62;100.00;102294.22;4936478;29;20487;-43
2023/10/04 08:12:54;;;;;;;10.20;1.73;;;;;;;22.59;100.00;102286.63;4940947;29;20047;-41
2023/10/04 08:15:25;;;;;;;6.85;1.30;;;;;;;22.57;100.00;102283.44;4945665;28;20162;-40
2023/10/04 08:17:56;;;;;;;7.90;1.70;;;;;;;22.57;100.00;102292.75;4933732;29;20134;-38
2023/10/04 08:20:28;;;;;;;10.60;1.85;;;;;;;22.58;100.00;102287.88;4933421;29;20047;-44
2023/10/04 08:22:58;;;;;;;9.43;1.60;;;;;;;22.56;100.00;102284.72;4933772;29;20123;-41
2023/10/04 08:25:28;;;;;;;6.07;1.50;;;;;;;22.59;100.00;102287.44;4933858;29;20058;-45
2023/10/04 08:27:56;;;;;;;5.28;1.35;;;;;;;22.56;100.00;102296.84;4940033;29;20133;-45
2023/10/04 08:30:25;;;;;;;7.57;1.58;;;;;;;22.55;100.00;102295.28;4939248;28;20050;-48
2023/10/04 08:32:53;;;;;;;11.07;1.60;;;;;;;22.54;100.00;102288.00;4947801;29;20051;-41
2023/10/04 08:35:28;;;;;;;10.27;1.88;;;;;;;22.52;100.00;102286.91;4941114;29;20063;-42
2023/10/04 08:37:57;;;;;;;11.32;2.00;;;;;;;22.47;100.00;102293.19;4933489;29;20067;-42
2023/10/04 08:40:27;;;;;;;9.68;2.30;;;;;;;22.42;100.00;102283.22;4933140;29;20047;-47
2023/10/04 08:42:53;;;;;;;10.23;2.40;;;;;;;22.39;100.00;102286.19;4934928;29;20079;-41
2023/10/04 08:45:20;;;;;;;9.90;1.95;;;;;;;22.42;100.00;102277.56;4940951;29;20118;-43
2023/10/04 08:47:57;;;;;;;15.13;2.30;;;;;;;22.47;100.00;102287.50;4943837;28;20051;-42
2023/10/04 08:50:24;;;;;;;6.13;1.75;;;;;;;22.51;100.00;102291.78;4938049;28;20497;-46
2023/10/04 08:53:06;;;;;;;10.13;2.60;;;;;;;22.57;100.00;102294.78;4934708;28;20566;-43
2023/10/04 08:55:41;;;;;;;10.70;2.00;;;;;;;22.56;100.00;102281.88;4940175;28;20409;-44
2023/10/04 08:58:09;;;;;;;5.35;1.50;;;;;;;22.60;100.00;102285.38;4944902;28;20051;-45
2023/10/04 09:00:39;;;;;;;7.38;1.50;;;;;;;22.61;100.00;102286.97;4932785;28;20111;-41
2023/10/04 09:03:07;;;;;;;8.07;1.73;;;;;;;22.62;100.00;102295.00;4939767;28;20094;-40
2023/10/04 09:05:36;;;;;;;4.15;1.27;;;;;;;22.62;100.00;102291.38;4951398;29;20051;-41
2023/10/04 09:08:04;;;;;;;4.82;1.63;;;;;;;22.64;100.00;102291.72;4950317;29;20501;-46
2023/10/04 09:10:34;;;;;;;12.02;2.00;;;;;;;22.74;100.00;102291.28;4942482;28;20047;-41
2023/10/04 09:13:03;;;;;;;5.10;1.65;;;;;;;22.64;100.00;102288.88;4933944;29;20566;-43
2023/10/04 09:15:31;;;;;;;7.03;1.48;;;;;;;22.59;100.00;102295.94;4947538;29;20055;-38
2023/10/04 09:17:58;;;;;;;7.15;1.95;;;;;;;22.60;100.00;102291.03;4943563;28;20059;-40
2023/10/04 09:20:30;;;;;;;5.78;1.50;;;;;;;22.61;100.00;102292.63;4938156;29;20051;-44
2023/10/04 09:22:59;;;;;;;8.60;2.13;;;;;;;22.60;100.00;102302.38;4945647;29;20047;-40
2023/10/04 09:25:36;;;;;;;4.47;1.75;;;;;;;22.62;100.00;102302.72;4940860;29;20047;-41
2023/10/04 09:28:08;;;;;;;5.90;2.05;;;;;;;22.58;100.00;102297.16;4951461;29;20193;-44
2023/10/04 09:30:36;;;;;;;9.52;1.85;;;;;;;22.56;100.00;102302.53;4944718;28;20043;-41
2023/10/04 09:33:07;;;;;;;5.85;1.63;;;;;;;22.57;100.00;102295.59;4940161;29;20485;-45
2023/10/04 09:35:42;;;;;;;8.07;1.77;;;;;;;22.58;100.00;102299.22;4935199;29;20055;-45
2023/10/04 09:38:16;;;;;;;7.65;1.70;;;;;;;22.62;100.00;102294.22;4948905;29;20114;-42
2023/10/04 09:40:55;;;;;;;5.47;1.60;;;;;;;22.64;100.00;102291.72;4948769;29;20106;-42
2023/10/04 09:43:37;;;;;;;8.38;2.00;;;;;;;22.65;100.00;102296.13;4938583;29;20541;-42
2023/10/04 09:46:07;;;;;;;5.03;1.58;;;;;;;22.61;100.00;102293.41;4933509;29;20048;-45
2023/10/04 09:48:37;;;;;;;8.32;1.55;;;;;;;22.66;100.00;102295.66;4943595;29;20051;-42
2023/10/04 09:51:06;;;;;;;7.13;1.80;;;;;;;22.68;100.00;102292.34;4942041;29;20059;-41
2023/10/04 09:53:38;;;;;;;4.32;1.73;;;;;;;22.69;100.00;102296.75;4942311;29;20600;-40
2023/10/04 09:56:08;;;;;;;7.68;1.48;;;;;;;22.66;100.00;102294.84;4943667;28;20066;-41
2023/10/04 09:58:45;;;;;;;8.30;1.50;;;;;;;22.68;100.00;102292.34;4948726;29;20413;-44
2023/10/04 10:01:12;;;;;;;8.73;2.03;;;;;;;22.68;100.00;102293.13;4949141;29;20063;-40
2023/10/04 10:03:47;;;;;;;6.38;1.95;;;;;;;22.66;100.00;102292.81;4941785;29;20430;-42
2023/10/04 10:06:19;;;;;;;12.60;2.22;;;;;;;22.72;100.00;102295.84;4948405;28;20051;-44
2023/10/04 10:08:50;;;;;;;10.25;1.83;;;;;;;22.69;100.00;102294.72;4947391;29;20430;-43
2023/10/04 10:11:18;;;;;;;15.70;3.08;;;;;;;22.72;100.00;102293.81;4942238;29;20138;-41
2023/10/04 10:13:45;;;;;;;13.85;3.38;;;;;;;22.79;100.00;102295.56;4941579;28;20105;-42
2023/10/04 10:16:13;;;;;;;12.57;2.00;;;;;;;22.66;100.00;102295.66;4931863;29;20495;-45
2023/10/04 10:18:40;;;;;;;10.05;2.33;;;;;;;22.64;100.00;102294.53;4941873;29;20051;-44
2023/10/04 10:21:08;;;;;;;10.65;3.25;;;;;;;22.59;100.00;102297.97;4942347;29;20557;-43
2023/10/04 10:23:57;;;;;;;13.10;2.55;;;;;;;22.68;100.00;102301.63;4940066;29;20426;-44
2023/10/04 10:26:24;;;;;;;12.75;2.83;;;;;;;22.65;100.00;102290.44;4941604;29;20055;-43
2023/10/04 10:29:04;;;;;;;13.80;3.08;;;;;;;22.55;100.00;102294.47;4936565;28;20158;-43
2023/10/04 10:31:31;;;;;;;8.35;2.90;;;;;;;22.60;100.00;102293.88;4945298;28;20148;-47
2023/10/04 10:34:02;;;;;;;10.43;2.28;;;;;;;22.63;100.00;102290.91;4945282;29;20161;-40
2023/10/04 10:36:31;;;;;;;7.28;2.05;;;;;;;22.68;100.00;102292.34;4948341;29;20059;-47
2023/10/04 10:38:59;;;;;;;8.65;2.35;;;;;;;22.66;100.00;102292.81;4944463;29;20047;-41
2023/10/04 10:41:31;;;;;;;14.07;3.13;;;;;;;22.66;100.00;102283.50;4937149;28;20154;-41
2023/10/04 10:44:20;;;;;;;9.93;2.40;;;;;;;22.64;100.00;102286.03;4940658;28;20481;-45
2023/10/04 10:47:04;;;;;;;10.13;2.78;;;;;;;22.68;100.00;102287.47;4940424;29;20056;-40
2023/10/04 10:49:39;;;;;;;7.25;2.50;;;;;;;22.65;100.00;102281.94;4940006;29;20052;-41
2023/10/04 10:52:24;;;;;;;9.35;2.40;;;;;;;22.70;100.00;102284.97;4940668;29;20449;-42
2023/10/04 10:54:56;;;;;;;9.98;2.88;;;;;;;22.71;100.00;102275.19;4949144;29;20051;-42
2023/10/04 10:57:24;;;;;;;6.10;2.30;;;;;;;22.70;100.00;102278.50;4945099;29;20514;-42
2023/10/04 10:59:53;;;;;;;8.27;2.72;;;;;;;22.71;100.00;102277.25;4947941;29;20533;-40
2023/10/04 11:02:21;;;;;;;8.13;2.50;;;;;;;22.73;100.00;102269.06;4950134;29;20065;-43
2023/10/04 11:04:52;;;;;;;7.25;2.40;;;;;;;22.74;100.00;102277.09;4948428;29;20055;-46
2023/10/04 11:07:21;;;;;;;7.32;2.15;;;;;;;22.73;100.00;102271.91;4944100;28;20138;-42
2023/10/04 11:09:55;;;;;;;5.68;2.03;;;;;;;22.71;100.00;102283.69;4943127;29;20492;-44
2023/10/04 11:12:23;;;;;;;6.60;2.08;;;;;;;22.73;100.00;102289.72;4948186;29;20130;-40
2023/10/04 11:14:53;;;;;;;8.10;1.90;;;;;;;22.74;100.00;102290.50;4942625;29;20059;-43
2023/10/04 11:17:23;;;;;;;10.85;2.38;;;;;;;22.74;100.00;102279.94;4947416;29;20510;-46
2023/10/04 11:19:52;;;;;;;10.85;2.10;;;;;;;22.81;100.00;102285.31;4944848;29;20525;-42
2023/10/04 11:22:23;;;;;;;6.43;2.13;;;;;;;22.79;100.00;102281.38;4935932;29;20056;-42
2023/10/04 11:24:50;;;;;;;6.65;2.13;;;;;;;22.85;100.00;102279.53;4939910;29;20091;-44
2023/10/04 11:27:21;;;;;;;8.65;2.33;;;;;;;22.86;100.00;102275.44;4934627;29;20499;-41
2023/10/04 11:29:52;;;;;;;9.73;1.92;;;;;;;22.84;100.00;102270.22;4938360;29;20510;-46
2023/10/04 11:32:21;;;;;;;8.85;2.47;;;;;;;22.85;100.00;102280.31;4938278;28;20055;-43
2023/10/04 11:34:48;;;;;;;13.40;2.78;;;;;;;22.78;100.00;102266.41;4938682;29;20056;-42